Time;durP1;ratioP1;P1;durP2;ratioP2;P2;SDS_P1;SDS_P2;PMS_P1;PMS_P2;Temp;Humidity;BMP_temperature;BMP_pressure;BME280_temperature;BME280_humidity;BME280_pressure;Samples;Min_cycle;Max_cycle;Signal;HPM_P1;HPM_P2
2023/01/06 00:00:45;;;;;;;5.92;2.92;;;;;;;4.30;74.91;97346.98;1748617;80;27189;-72
2023/01/06 00:03:14;;;;;;;6.85;2.77;;;;;;;4.30;74.97;97359.84;1748118;80;25732;-71
2023/01/06 00:05:40;;;;;;;5.00;3.00;;;;;;;4.33;75.00;97365.35;1748477;80;25932;-72
2023/01/06 00:08:07;;;;;;;6.58;2.80;;;;;;;4.33;75.01;97351.48;1748303;80;25877;-74
2023/01/06 00:10:35;;;;;;;5.22;2.85;;;;;;;4.35;74.97;97361.98;1748544;80;25795;-72
2023/01/06 00:13:02;;;;;;;7.83;3.42;;;;;;;4.35;74.94;97368.66;1748573;80;28408;-72
2023/01/06 00:15:30;;;;;;;10.13;3.22;;;;;;;4.38;74.95;97368.83;1748359;80;25741;-72
2023/01/06 00:17:56;;;;;;;6.80;3.12;;;;;;;4.39;74.94;97364.64;1752817;81;25677;-72
2023/01/06 00:20:23;;;;;;;9.53;3.47;;;;;;;4.42;74.99;97369.65;1753549;81;26435;-73
2023/01/06 00:22:50;;;;;;;9.08;3.75;;;;;;;4.44;74.97;97370.31;1741747;81;25847;-72
2023/01/06 00:25:16;;;;;;;8.03;3.10;;;;;;;4.41;74.98;97378.67;1744113;81;28217;-73
2023/01/06 00:27:43;;;;;;;8.90;3.60;;;;;;;4.40;74.82;97378.84;1752597;81;25786;-75
2023/01/06 00:30:11;;;;;;;6.78;3.08;;;;;;;4.37;74.69;97374.67;1753656;81;25768;-74
2023/01/06 00:32:38;;;;;;;3.80;2.52;;;;;;;4.35;74.61;97365.98;1753482;81;25727;-72
2023/01/06 00:35:05;;;;;;;6.53;2.87;;;;;;;4.33;74.59;97366.19;1753608;81;25770;-73
2023/01/06 00:37:32;;;;;;;5.00;2.58;;;;;;;4.34;74.48;97364.34;1753511;81;27360;-73
2023/01/06 00:39:58;;;;;;;4.97;2.80;;;;;;;4.36;74.41;97375.67;1753585;81;25488;-72
2023/01/06 00:42:25;;;;;;;3.12;2.10;;;;;;;4.31;74.31;97372.20;1753479;81;25886;-74
2023/01/06 00:44:52;;;;;;;2.95;1.90;;;;;;;4.29;74.23;97374.71;1758894;80;25834;-71
2023/01/06 00:47:19;;;;;;;2.87;1.92;;;;;;;4.28;74.08;97378.39;1776757;79;25924;-71
2023/01/06 00:49:46;;;;;;;4.97;2.20;;;;;;;4.28;73.99;97376.55;1811819;78;26722;-72
2023/01/06 00:52:13;;;;;;;5.28;1.98;;;;;;;4.31;73.97;97388.23;1785597;78;25730;-71
2023/01/06 00:54:39;;;;;;;4.67;2.42;;;;;;;4.31;73.79;97392.24;1812747;78;25878;-71
2023/01/06 00:57:07;;;;;;;4.42;1.80;;;;;;;4.31;73.67;97399.42;1818842;78;25915;-71
2023/01/06 00:59:34;;;;;;;3.17;1.40;;;;;;;4.29;73.58;97409.45;1772958;78;25736;-75
2023/01/06 01:02:02;;;;;;;4.72;2.12;;;;;;;4.29;73.45;97409.45;1762178;78;28386;-73
2023/01/06 01:04:29;;;;;;;3.12;1.67;;;;;;;4.26;73.31;97407.95;1763590;78;25742;-72
2023/01/06 01:06:55;;;;;;;4.03;1.95;;;;;;;4.25;73.16;97406.78;1799766;78;25737;-71
2023/01/06 01:09:28;;;;;;;4.08;1.82;;;;;;;4.25;73.08;97413.45;1762003;78;25883;-72
2023/01/06 01:12:11;;;;;;;3.90;1.98;;;;;;;4.23;72.92;97419.47;1762189;78;25758;-72
2023/01/06 01:14:48;;;;;;;2.98;1.70;;;;;;;4.20;72.87;97434.53;1762289;78;27365;-74
2023/01/06 01:17:25;;;;;;;3.17;1.40;;;;;;;4.15;72.75;97434.20;1755755;79;25826;-74
2023/01/06 01:19:54;;;;;;;3.17;1.75;;;;;;;4.11;72.67;97436.86;1791028;79;25810;-71
2023/01/06 01:22:23;;;;;;;2.92;1.65;;;;;;;4.11;72.60;97434.19;1785354;79;25703;-72
2023/01/06 01:24:50;;;;;;;3.58;1.70;;;;;;;4.10;72.49;97445.91;1775980;79;25711;-72
2023/01/06 01:27:18;;;;;;;5.58;2.08;;;;;;;4.09;72.42;97453.09;1770944;79;27456;-72
2023/01/06 01:29:44;;;;;;;4.10;1.67;;;;;;;4.08;72.33;97458.59;1759985;79;25930;-73
2023/01/06 01:32:11;;;;;;;3.05;1.50;;;;;;;4.08;72.23;97454.59;1765485;79;25792;-71
2023/01/06 01:34:38;;;;;;;3.50;1.72;;;;;;;4.09;72.24;97469.12;1789215;79;25893;-70
2023/01/06 01:37:05;;;;;;;2.33;1.50;;;;;;;4.11;72.20;97468.92;1769098;79;25773;-72
2023/01/06 01:39:31;;;;;;;4.42;1.90;;;;;;;4.09;72.13;97472.29;1791249;79;28373;-72
2023/01/06 01:41:58;;;;;;;3.85;2.25;;;;;;;4.10;71.99;97465.95;1791216;79;26039;-74
2023/01/06 01:44:50;;;;;;;3.47;2.22;;;;;;;4.12;71.90;97474.60;1778909;79;25744;-71
2023/01/06 01:47:46;;;;;;;5.10;1.80;;;;;;;4.12;71.85;97483.95;1783634;79;25867;-73
2023/01/06 01:50:24;;;;;;;3.50;1.60;;;;;;;4.09;71.68;97481.14;1683230;84;25756;-72
2023/01/06 01:52:55;;;;;;;3.10;1.65;;;;;;;4.07;71.55;97484.47;1683525;85;27494;-71
2023/01/06 01:55:23;;;;;;;4.03;1.52;;;;;;;4.04;71.48;97479.97;1669230;85;25726;-71
2023/01/06 01:58:13;;;;;;;2.15;1.47;;;;;;;4.03;71.45;97480.97;1674653;85;25860;-71
2023/01/06 02:00:42;;;;;;;2.80;1.37;;;;;;;4.03;71.43;97485.80;1666088;86;26548;-71
2023/01/06 02:03:12;;;;;;;4.17;2.08;;;;;;;4.06;71.43;97480.13;1643591;86;25740;-72
2023/01/06 02:05:43;;;;;;;2.65;1.47;;;;;;;4.05;71.40;97482.97;1666414;86;27399;-72
2023/01/06 02:08:27;;;;;;;5.37;2.62;;;;;;;4.04;71.34;97483.97;1662999;86;33200;-71
2023/01/06 02:10:54;;;;;;;4.17;2.40;;;;;;;4.04;71.30;97485.30;1611797;89;25764;-71
2023/01/06 02:13:20;;;;;;;3.35;1.45;;;;;;;4.03;71.33;97484.97;1611954;88;25841;-71
2023/01/06 02:15:49;;;;;;;3.37;2.17;;;;;;;4.02;71.30;97479.29;1613186;88;25832;-74
2023/01/06 02:18:26;;;;;;;4.62;1.87;;;;;;;4.00;71.22;97482.12;1612990;88;27530;-72
2023/01/06 02:21:10;;;;;;;3.40;1.80;;;;;;;4.02;71.23;97485.47;1609973;88;25946;-72
2023/01/06 02:24:05;;;;;;;2.47;1.60;;;;;;;4.04;71.25;97487.98;1612937;88;25796;-74
2023/01/06 02:26:56;;;;;;;4.95;1.85;;;;;;;4.04;71.19;97487.98;1613046;88;25687;-71
2023/01/06 02:29:40;;;;;;;2.42;1.80;;;;;;;4.04;71.15;97485.30;1579602;90;25778;-72
2023/01/06 02:32:53;;;;;;;4.75;1.50;;;;;;;3.97;71.11;97481.98;1592127;88;28316;-72
2023/01/06 02:35:53;;;;;;;4.42;1.90;;;;;;;3.94;71.06;97486.32;1589250;89;26048;-71
2023/01/06 02:38:28;;;;;;;4.10;1.70;;;;;;;3.94;71.08;97483.66;1591028;87;25862;-71
2023/01/06 02:41:15;;;;;;;2.58;1.60;;;;;;;3.89;71.07;97487.31;1589219;89;26466;-71
2023/01/06 02:44:15;;;;;;;3.62;1.92;;;;;;;3.90;71.09;97492.98;1556847;90;25866;-71
2023/01/06 02:47:13;;;;;;;2.33;1.87;;;;;;;3.90;71.04;97498.33;1555635;90;27473;-72
2023/01/06 02:49:53;;;;;;;3.67;1.62;;;;;;;3.89;70.97;97496.66;1657609;84;25793;-71
2023/01/06 02:52:36;;;;;;;2.90;1.52;;;;;;;3.92;70.89;97503.51;1697777;81;25806;-72
2023/01/06 02:55:22;;;;;;;4.22;2.08;;;;;;;3.90;70.81;97508.17;1739164;82;26338;-70
2023/01/06 02:58:03;;;;;;;4.67;1.80;;;;;;;3.88;70.74;97509.67;1785403;77;25330;-71
2023/01/06 03:00:44;;;;;;;7.62;1.98;;;;;;;3.85;70.63;97514.54;1794397;77;27465;-73
2023/01/06 03:03:19;;;;;;;3.98;1.90;;;;;;;3.80;70.52;97519.03;1757938;81;25766;-74
2023/01/06 03:05:50;;;;;;;4.45;1.92;;;;;;;3.74;70.58;97513.03;1758163;81;25799;-71
2023/01/06 03:08:24;;;;;;;3.37;1.62;;;;;;;3.77;70.61;97519.85;1757760;81;25857;-72
2023/01/06 03:10:52;;;;;;;1.90;1.00;;;;;;;3.78;70.71;97522.36;1691800;84;26010;-71
2023/01/06 03:13:36;;;;;;;2.75;1.45;;;;;;;3.77;70.56;97518.52;1691778;84;27572;-72
2023/01/06 03:16:04;;;;;;;3.33;1.42;;;;;;;3.75;70.75;97524.02;1688739;84;26042;-72
2023/01/06 03:18:32;;;;;;;2.00;1.40;;;;;;;3.77;70.69;97529.20;1691736;84;25826;-71
2023/01/06 03:21:03;;;;;;;4.33;1.77;;;;;;;3.76;70.67;97528.36;1691878;84;26449;-71
2023/01/06 03:23:31;;;;;;;4.50;1.70;;;;;;;3.81;70.70;97529.21;1689014;84;25769;-71
2023/01/06 03:25:58;;;;;;;4.20;1.80;;;;;;;3.83;70.68;97527.22;1691840;84;27624;-73
2023/01/06 03:28:25;;;;;;;3.67;1.55;;;;;;;3.80;70.61;97527.04;1691578;84;25793;-71
2023/01/06 03:31:02;;;;;;;3.15;1.52;;;;;;;3.80;70.59;97533.72;1691806;84;25401;-73
2023/01/06 03:33:33;;;;;;;3.85;1.70;;;;;;;3.80;70.51;97528.38;1685823;84;25689;-71
2023/01/06 03:36:14;;;;;;;2.37;1.50;;;;;;;3.76;70.52;97532.37;1609468;89;32412;-71
2023/01/06 03:39:13;;;;;;;3.72;1.70;;;;;;;3.75;70.45;97541.38;1608025;89;27723;-71
2023/01/06 03:44:51;;;;;;;2.60;1.60;;;;;;;3.73;70.61;97535.39;1609059;88;25804;-71
2023/01/06 03:47:29;;;;;;;3.70;1.70;;;;;;;3.67;70.51;97545.38;1555740;92;26501;-71
2023/01/06 03:50:04;;;;;;;5.35;1.90;;;;;;;3.63;70.59;97541.36;1491118;95;25888;-71
2023/01/06 03:52:34;;;;;;;3.45;1.32;;;;;;;3.60;70.52;97542.55;1419192;100;27169;-71
2023/01/06 03:55:09;;;;;;;2.52;1.45;;;;;;;3.61;70.61;97549.56;1466041;96;26146;-73
2023/01/06 03:57:39;;;;;;;6.03;2.22;;;;;;;3.64;70.71;97551.03;1442580;99;25860;-71
2023/01/06 04:00:18;;;;;;;2.15;1.12;;;;;;;3.68;70.60;97547.05;1491181;95;25662;-74
2023/01/06 04:02:45;;;;;;;4.45;1.70;;;;;;;3.64;70.62;97545.70;1496127;95;25798;-71
2023/01/06 04:05:17;;;;;;;3.52;1.87;;;;;;;3.68;70.69;97544.38;1506595;95;27583;-72
2023/01/06 04:07:45;;;;;;;2.72;1.62;;;;;;;3.68;70.64;97547.05;1548562;88;25655;-71
2023/01/06 04:10:14;;;;;;;3.27;1.70;;;;;;;3.61;70.63;97550.06;1582155;89;25884;-72
2023/01/06 04:12:41;;;;;;;2.17;1.70;;;;;;;3.62;70.62;97550.39;1582134;89;25972;-71
2023/01/06 04:15:13;;;;;;;2.75;1.77;;;;;;;3.63;70.58;97552.03;1582226;89;25865;-71
2023/01/06 04:17:41;;;;;;;2.70;1.60;;;;;;;3.62;70.54;97551.73;1582275;88;27432;-71
2023/01/06 04:20:15;;;;;;;3.00;1.52;;;;;;;3.62;70.59;97555.73;1582168;89;25805;-72
2023/01/06 04:22:41;;;;;;;4.25;1.70;;;;;;;3.64;70.54;97555.05;1582199;89;25885;-74
2023/01/06 04:25:09;;;;;;;6.25;1.87;;;;;;;3.61;70.44;97563.41;1582327;89;26685;-71
2023/01/06 04:27:36;;;;;;;3.00;1.42;;;;;;;3.57;70.41;97560.22;1582482;88;25809;-72
2023/01/06 04:30:04;;;;;;;2.47;1.40;;;;;;;3.53;70.40;97568.70;1624396;86;28135;-72
2023/01/06 04:32:31;;;;;;;1.80;1.35;;;;;;;3.54;70.47;97575.22;1665340;85;25970;-72
2023/01/06 04:34:57;;;;;;;2.22;1.55;;;;;;;3.53;70.40;97578.88;1710984;82;25717;-72
2023/01/06 04:37:24;;;;;;;2.45;1.52;;;;;;;3.51;70.51;97575.53;1701395;82;25916;-74
2023/01/06 04:39:50;;;;;;;3.22;1.67;;;;;;;3.53;70.52;97578.88;1726127;82;25835;-71
2023/01/06 04:42:17;;;;;;;3.83;1.60;;;;;;;3.52;70.57;97580.38;1710104;82;27496;-72
2023/01/06 04:44:44;;;;;;;3.85;1.98;;;;;;;3.52;70.53;97575.88;1776556;78;25694;-72
2023/01/06 04:47:10;;;;;;;4.72;1.70;;;;;;;3.50;70.54;97583.73;1798097;77;25223;-74
2023/01/06 04:49:37;;;;;;;4.30;1.65;;;;;;;3.47;70.60;97584.05;1833865;77;25899;-72
2023/01/06 04:52:04;;;;;;;6.45;1.80;;;;;;;3.46;70.64;97585.05;1823284;77;25258;-72
2023/01/06 04:54:31;;;;;;;4.53;1.80;;;;;;;3.46;70.63;97587.71;1806044;77;27400;-73
2023/01/06 04:56:57;;;;;;;5.03;1.70;;;;;;;3.48;70.77;97588.39;1830717;77;25776;-71
2023/01/06 04:59:24;;;;;;;4.25;2.25;;;;;;;3.48;70.96;97595.06;1813258;78;25741;-74
2023/01/06 05:01:50;;;;;;;5.80;1.85;;;;;;;3.51;70.89;97596.05;1816063;77;25666;-72
2023/01/06 05:04:17;;;;;;;5.20;2.05;;;;;;;3.49;70.81;97592.73;1784744;78;25683;-72
2023/01/06 05:06:44;;;;;;;4.40;2.37;;;;;;;3.46;70.87;97593.89;1784321;78;27362;-73
2023/01/06 05:09:11;;;;;;;2.60;1.50;;;;;;;3.49;70.93;97599.41;1784083;78;25655;-72
2023/01/06 05:11:38;;;;;;;4.12;2.02;;;;;;;3.53;70.87;97588.72;1784387;78;25741;-73
2023/01/06 05:14:04;;;;;;;3.05;1.85;;;;;;;3.52;70.84;97591.05;1822414;77;25890;-74
2023/01/06 05:16:34;;;;;;;4.87;1.90;;;;;;;3.51;70.87;97590.71;1830830;78;25708;-72
2023/01/06 05:19:00;;;;;;;3.45;1.82;;;;;;;3.47;70.90;97591.56;1795873;78;28231;-72
2023/01/06 05:21:29;;;;;;;4.78;1.80;;;;;;;3.43;70.90;97592.03;1784203;77;25813;-73
2023/01/06 05:23:56;;;;;;;5.72;2.00;;;;;;;3.44;70.95;97597.70;1784296;78;25741;-74
2023/01/06 05:26:25;;;;;;;4.53;2.33;;;;;;;3.43;71.02;97602.21;1784286;77;25836;-73
2023/01/06 05:28:52;;;;;;;2.60;2.00;;;;;;;3.36;71.02;97604.36;1784347;78;26488;-72
2023/01/06 05:31:19;;;;;;;3.98;2.22;;;;;;;3.32;71.17;97613.17;1784330;78;26979;-72
2023/01/06 05:33:46;;;;;;;3.52;2.20;;;;;;;3.33;71.30;97614.85;1808433;77;25599;-72
2023/01/06 05:36:15;;;;;;;4.95;2.22;;;;;;;3.37;71.34;97621.55;1801022;77;25643;-72
2023/01/06 05:38:42;;;;;;;3.72;2.08;;;;;;;3.39;71.25;97613.36;1784811;78;26711;-72
2023/01/06 05:41:09;;;;;;;3.00;1.70;;;;;;;3.39;71.26;97616.02;1810647;77;26060;-72
2023/01/06 05:43:37;;;;;;;2.80;1.90;;;;;;;3.41;71.43;97618.04;1822758;77;27262;-73
2023/01/06 05:46:06;;;;;;;4.17;2.10;;;;;;;3.45;71.40;97624.73;1783838;78;25771;-72
2023/01/06 05:48:33;;;;;;;8.88;2.52;;;;;;;3.47;71.33;97618.24;1816891;77;25777;-71
2023/01/06 05:51:12;;;;;;;5.65;2.60;;;;;;;3.50;71.26;97619.77;1769582;77;25729;-71
2023/01/06 05:53:42;;;;;;;4.05;2.35;;;;;;;3.51;71.27;97612.90;1770309;77;25707;-72
2023/01/06 05:56:12;;;;;;;4.05;2.05;;;;;;;3.52;71.26;97615.91;1821409;78;27469;-72
2023/01/06 05:58:39;;;;;;;4.50;2.45;;;;;;;3.55;71.19;97614.26;1777283;78;25883;-71
2023/01/06 06:01:10;;;;;;;4.35;2.22;;;;;;;3.55;71.17;97612.92;1786047;78;25695;-72
2023/01/06 06:03:36;;;;;;;4.10;2.20;;;;;;;3.58;71.15;97609.10;1807740;78;25791;-71
2023/01/06 06:06:05;;;;;;;4.00;2.30;;;;;;;3.61;71.15;97617.63;1810287;78;25400;-72
2023/01/06 06:08:32;;;;;;;3.42;2.02;;;;;;;3.63;71.08;97608.09;1807677;77;28122;-72
2023/01/06 06:11:06;;;;;;;4.47;2.27;;;;;;;3.64;71.06;97617.78;1807828;77;25212;-72
2023/01/06 06:13:33;;;;;;;4.67;2.25;;;;;;;3.62;71.07;97623.80;1706684;82;25783;-72
2023/01/06 06:16:12;;;;;;;2.77;1.75;;;;;;;3.63;71.07;97627.62;1712298;82;25733;-72
2023/01/06 06:18:43;;;;;;;6.05;2.20;;;;;;;3.66;71.06;97634.97;1706767;82;25493;-71
2023/01/06 06:21:15;;;;;;;4.22;2.22;;;;;;;3.67;70.96;97637.48;1713327;82;27447;-73
2023/01/06 06:23:42;;;;;;;4.90;2.33;;;;;;;3.67;70.98;97632.64;1704892;82;26079;-72
2023/01/06 06:26:10;;;;;;;4.70;2.27;;;;;;;3.67;70.92;97637.48;1711519;82;25769;-72
2023/01/06 06:28:38;;;;;;;3.72;2.45;;;;;;;3.66;70.90;97646.48;1711003;82;25788;-74
2023/01/06 06:31:11;;;;;;;4.55;2.30;;;;;;;3.66;70.92;97631.80;1708470;82;25853;-72
2023/01/06 06:33:39;;;;;;;6.28;2.60;;;;;;;3.64;70.87;97644.47;1689672;84;27586;-72
2023/01/06 06:36:10;;;;;;;6.42;3.15;;;;;;;3.63;70.87;97644.13;1659427;84;25728;-71
2023/01/06 06:38:38;;;;;;;5.37;3.20;;;;;;;3.61;70.86;97643.48;1690738;84;25759;-71
2023/01/06 06:41:05;;;;;;;5.60;2.80;;;;;;;3.56;70.97;97645.30;1730494;82;25683;-74
2023/01/06 06:43:32;;;;;;;7.45;2.83;;;;;;;3.56;71.03;97645.79;1730230;82;25770;-72
2023/01/06 06:45:59;;;;;;;4.67;2.67;;;;;;;3.57;70.97;97657.64;1730402;82;27530;-74
2023/01/06 06:48:28;;;;;;;4.70;2.60;;;;;;;3.58;70.96;97649.98;1730067;82;25772;-72
2023/01/06 06:51:02;;;;;;;6.33;2.98;;;;;;;3.60;70.93;97653.33;1706878;82;25795;-72
2023/01/06 06:53:28;;;;;;;5.58;3.52;;;;;;;3.61;70.89;97652.83;1702994;83;25774;-72
2023/01/06 06:55:57;;;;;;;3.42;2.90;;;;;;;3.60;70.78;97656.49;1702726;83;25706;-72
2023/01/06 06:58:24;;;;;;;5.10;2.58;;;;;;;3.59;70.67;97664.16;1702656;83;28513;-73
2023/01/06 07:00:51;;;;;;;4.85;2.83;;;;;;;3.59;70.68;97673.50;1702707;84;25968;-72
2023/01/06 07:03:19;;;;;;;5.75;2.30;;;;;;;3.59;70.67;97668.16;1687869;81;25819;-72
2023/01/06 07:05:49;;;;;;;7.33;2.60;;;;;;;3.58;70.57;97677.17;1751395;81;27062;-72
2023/01/06 07:08:15;;;;;;;4.78;2.70;;;;;;;3.58;70.60;97686.51;1751821;81;25810;-73
2023/01/06 07:10:42;;;;;;;5.58;2.95;;;;;;;3.60;70.65;97685.86;1769167;79;27589;-72
2023/01/06 07:13:09;;;;;;;5.28;2.95;;;;;;;3.57;70.49;97688.34;1753044;80;25666;-73
2023/01/06 07:15:35;;;;;;;7.65;4.17;;;;;;;3.54;70.49;97691.81;1753289;80;25698;-71
2023/01/06 07:18:04;;;;;;;5.80;3.27;;;;;;;3.52;70.55;97695.14;1753403;80;26055;-71
2023/01/06 07:20:33;;;;;;;4.35;3.00;;;;;;;3.51;70.56;97698.31;1774090;79;25694;-72
2023/01/06 07:23:00;;;;;;;6.08;3.08;;;;;;;3.54;70.53;97708.67;1775238;79;28172;-74
2023/01/06 07:25:27;;;;;;;5.83;3.25;;;;;;;3.56;70.53;97700.51;1752807;80;25680;-72
2023/01/06 07:27:55;;;;;;;6.40;4.03;;;;;;;3.58;70.54;97702.03;1759463;79;25596;-72
2023/01/06 07:30:23;;;;;;;9.88;6.03;;;;;;;3.58;70.60;97701.19;1768018;80;25856;-72
2023/01/06 07:32:50;;;;;;;10.08;7.45;;;;;;;3.59;70.66;97696.19;1775030;79;25812;-75
2023/01/06 07:35:17;;;;;;;10.38;6.03;;;;;;;3.58;70.75;97702.03;1753025;80;27226;-73
2023/01/06 07:37:44;;;;;;;9.70;5.65;;;;;;;3.54;70.73;97698.49;1736111;82;25862;-73
2023/01/06 07:40:12;;;;;;;9.08;5.80;;;;;;;3.55;70.77;97698.83;1749262;82;25749;-75
2023/01/06 07:42:39;;;;;;;7.95;3.77;;;;;;;3.58;70.76;97699.36;1746933;82;26458;-72
2023/01/06 07:45:07;;;;;;;5.65;4.17;;;;;;;3.53;70.67;97698.16;1738488;82;26853;-73
2023/01/06 07:47:33;;;;;;;4.95;3.40;;;;;;;3.53;70.78;97708.83;1745648;81;27372;-71
2023/01/06 07:50:00;;;;;;;7.55;4.12;;;;;;;3.55;70.77;97707.67;1742375;80;25912;-72
2023/01/06 07:52:27;;;;;;;5.35;3.58;;;;;;;3.60;70.79;97711.22;1814388;78;25676;-74
2023/01/06 07:54:58;;;;;;;6.28;4.12;;;;;;;3.58;70.81;97708.70;1778689;78;25727;-74
2023/01/06 07:57:22;;;;;;;5.65;3.90;;;;;;;3.57;70.78;97700.35;1777704;78;25776;-72
2023/01/06 07:59:48;;;;;;;7.85;3.65;;;;;;;3.57;70.85;97707.52;1764398;78;28364;-75
2023/01/06 08:02:15;;;;;;;9.18;3.72;;;;;;;3.60;70.83;97705.38;1804560;78;25631;-72
2023/01/06 08:04:42;;;;;;;6.97;4.47;;;;;;;3.63;70.80;97699.70;1764490;78;25810;-73
2023/01/06 08:07:08;;;;;;;9.43;5.35;;;;;;;3.68;70.86;97697.89;1764020;77;25983;-75
2023/01/06 08:09:36;;;;;;;11.33;6.35;;;;;;;3.70;70.85;97695.90;1764514;78;25838;-71
2023/01/06 08:12:03;;;;;;;9.25;4.67;;;;;;;3.70;70.74;97695.90;1764402;78;28433;-73
2023/01/06 08:14:29;;;;;;;8.35;5.03;;;;;;;3.71;70.70;97693.57;1764346;77;25198;-72
2023/01/06 08:16:56;;;;;;;6.35;4.15;;;;;;;3.64;70.60;97687.19;1798309;78;25697;-72
2023/01/06 08:19:22;;;;;;;7.70;3.30;;;;;;;3.60;70.73;97689.86;1781315;78;26394;-74
2023/01/06 08:21:49;;;;;;;5.67;3.45;;;;;;;3.62;70.83;97689.20;1792695;78;25841;-73
2023/01/06 08:24:15;;;;;;;5.45;3.30;;;;;;;3.57;70.73;97691.51;1804560;78;27358;-72
2023/01/06 08:26:42;;;;;;;3.92;2.72;;;;;;;3.54;70.92;97699.83;1764228;78;25795;-73
2023/01/06 08:29:09;;;;;;;4.42;3.37;;;;;;;3.49;70.95;97699.48;1765291;77;25209;-72
2023/01/06 08:31:35;;;;;;;6.62;3.30;;;;;;;3.51;70.96;97708.14;1803012;78;25698;-72
2023/01/06 08:34:02;;;;;;;5.05;3.90;;;;;;;3.52;70.98;97725.34;1800477;78;25722;-73
2023/01/06 08:36:28;;;;;;;5.15;3.20;;;;;;;3.59;70.99;97725.55;1787370;78;27525;-72
2023/01/06 08:38:55;;;;;;;8.03;3.30;;;;;;;3.63;70.88;97724.22;1801659;78;25666;-74
2023/01/06 08:41:22;;;;;;;4.00;2.72;;;;;;;3.61;70.78;97725.73;1801546;78;25660;-72
2023/01/06 08:43:49;;;;;;;7.08;3.27;;;;;;;3.57;70.85;97730.21;1766496;78;26346;-74
2023/01/06 08:46:18;;;;;;;4.50;2.77;;;;;;;3.59;71.02;97734.90;1764489;78;26061;-72
2023/01/06 08:48:46;;;;;;;6.85;2.95;;;;;;;3.61;71.01;97731.58;1789522;78;27370;-72
2023/01/06 08:51:18;;;;;;;4.67;2.90;;;;;;;3.63;70.99;97729.06;1819031;78;25752;-73
2023/01/06 08:53:45;;;;;;;4.00;2.60;;;;;;;3.67;70.91;97732.25;1798963;79;25755;-72
2023/01/06 08:56:16;;;;;;;5.65;3.25;;;;;;;3.73;70.87;97736.13;1791199;80;25906;-71
2023/01/06 08:58:43;;;;;;;4.45;2.85;;;;;;;3.78;70.83;97737.30;1804546;79;25747;-75
2023/01/06 09:01:19;;;;;;;6.40;3.35;;;;;;;3.83;70.60;97751.03;1779913;79;27610;-75
2023/01/06 09:03:46;;;;;;;8.55;3.33;;;;;;;3.84;70.60;97759.38;1689204;83;25870;-72
2023/01/06 09:06:12;;;;;;;5.45;3.10;;;;;;;3.84;70.59;97759.38;1689367;83;25827;-75
2023/01/06 09:08:39;;;;;;;5.03;2.85;;;;;;;3.84;70.68;97750.53;1656684;85;25800;-73
2023/01/06 09:11:09;;;;;;;6.75;3.77;;;;;;;3.82;70.50;97747.17;1656279;85;25972;-72
2023/01/06 09:13:36;;;;;;;4.87;3.37;;;;;;;3.82;70.25;97751.19;1656611;85;27406;-73
2023/01/06 09:16:07;;;;;;;5.22;2.90;;;;;;;3.84;70.41;97754.04;1655536;85;25909;-73
2023/01/06 09:18:34;;;;;;;4.17;2.67;;;;;;;3.85;70.38;97754.38;1690362;84;25932;-72
2023/01/06 09:21:01;;;;;;;4.97;2.90;;;;;;;3.89;70.30;97758.38;1690431;84;25696;-74
2023/01/06 09:23:29;;;;;;;6.35;3.50;;;;;;;3.87;70.12;97753.69;1701707;83;25898;-73
2023/01/06 09:25:55;;;;;;;4.83;3.08;;;;;;;3.85;70.24;97753.54;1719093;83;28360;-73
2023/01/06 09:28:22;;;;;;;5.78;2.90;;;;;;;3.90;70.25;97749.87;1690500;84;25760;-72
2023/01/06 09:30:49;;;;;;;5.80;3.12;;;;;;;3.97;70.25;97750.42;1708421;83;25795;-71
2023/01/06 09:33:16;;;;;;;6.30;3.77;;;;;;;4.05;70.15;97743.42;1692425;83;25759;-73
2023/01/06 09:35:44;;;;;;;6.12;3.40;;;;;;;4.05;69.96;97735.41;1705654;83;25895;-71
2023/01/06 09:38:13;;;;;;;6.28;3.75;;;;;;;4.03;70.00;97733.39;1697681;83;27629;-74
2023/01/06 09:41:15;;;;;;;4.92;3.25;;;;;;;4.02;70.04;97733.05;1690344;84;25732;-73
2023/01/06 09:43:59;;;;;;;10.00;5.05;;;;;;;4.05;70.06;97726.05;1717016;83;25831;-73
2023/01/06 09:46:31;;;;;;;10.85;6.42;;;;;;;4.12;70.12;97719.05;1656111;86;25688;-72
2023/01/06 09:49:23;;;;;;;12.10;6.87;;;;;;;4.21;70.16;97710.08;1662872;86;25315;-73
2023/01/06 09:51:56;;;;;;;21.73;11.60;;;;;;;4.30;69.89;97704.58;1652047;86;27530;-72
2023/01/06 09:54:35;;;;;;;12.10;7.45;;;;;;;4.37;69.89;97702.06;1646957;86;25704;-73
2023/01/06 09:57:06;;;;;;;10.35;5.47;;;;;;;4.44;69.76;97696.41;1676769;84;25480;-73
2023/01/06 10:00:06;;;;;;;9.53;5.42;;;;;;;4.48;69.68;97689.70;1656154;84;25812;-75
2023/01/06 10:02:36;;;;;;;10.15;5.33;;;;;;;4.57;69.62;97690.56;1618013;86;25818;-73
2023/01/06 10:05:24;;;;;;;16.15;8.75;;;;;;;4.62;69.73;97682.36;1616869;86;27408;-73
2023/01/06 10:08:21;;;;;;;16.82;9.75;;;;;;;4.69;69.59;97679.38;1609668;86;25603;-73
2023/01/06 10:11:08;;;;;;;7.72;5.03;;;;;;;4.73;69.54;97673.66;1624569;86;25881;-73
2023/01/06 10:14:01;;;;;;;8.68;5.30;;;;;;;4.77;69.32;97666.98;1626148;86;26262;-74
2023/01/06 10:17:19;;;;;;;10.18;5.33;;;;;;;4.83;69.43;97658.30;1629793;86;25788;-72
2023/01/06 10:20:29;;;;;;;9.45;6.30;;;;;;;4.92;69.31;97658.62;1602522;88;45499;-72
2023/01/06 10:23:21;;;;;;;10.95;5.80;;;;;;;5.00;69.17;97650.06;1589939;88;26608;-73
2023/01/06 10:25:51;;;;;;;;;;;;;;;5.11;69.32;97655.56;1587359;88;25828;-73
2023/01/06 10:28:35;;;;;;;9.33;5.28;;;;;;;5.22;69.34;97644.48;1509021;93;25825;-73
2023/01/06 10:31:07;;;;;;;6.37;3.92;;;;;;;5.34;69.08;97643.11;1490929;95;25934;-73
2023/01/06 10:33:39;;;;;;;9.35;5.72;;;;;;;5.47;68.78;97629.67;1451777;97;28165;-73
2023/01/06 10:36:12;;;;;;;10.28;5.67;;;;;;;5.52;68.53;97628.66;1454997;97;25872;-74
2023/01/06 10:38:46;;;;;;;9.48;5.10;;;;;;;5.55;68.25;97629.66;1450128;98;26836;-72
2023/01/06 10:41:35;;;;;;;9.28;6.03;;;;;;;5.67;68.35;97630.94;1451898;98;25904;-73
2023/01/06 10:44:02;;;;;;;11.48;6.80;;;;;;;5.89;68.28;97635.53;1433871;99;26633;-73
2023/01/06 10:46:33;;;;;;;10.30;5.67;;;;;;;6.07;67.96;97640.60;1435070;99;27419;-73
2023/01/06 10:49:02;;;;;;;10.55;6.22;;;;;;;6.19;67.33;97628.97;1433154;99;25542;-73
2023/01/06 10:51:44;;;;;;;11.40;5.90;;;;;;;6.14;67.27;97630.86;1440525;98;25821;-74
2023/01/06 10:54:15;;;;;;;10.05;5.95;;;;;;;6.21;67.35;97627.78;1436319;98;25876;-74
2023/01/06 10:56:46;;;;;;;13.23;7.10;;;;;;;6.35;67.54;97624.33;1410532;99;25851;-74
2023/01/06 10:59:13;;;;;;;8.45;5.20;;;;;;;6.44;67.53;97600.95;1411889;99;27479;-72
2023/01/06 11:01:57;;;;;;;7.75;4.42;;;;;;;6.78;67.24;97616.06;1440745;99;25961;-74
2023/01/06 11:04:26;;;;;;;6.08;3.90;;;;;;;6.99;66.64;97595.75;1469865;94;25846;-73
2023/01/06 11:06:59;;;;;;;7.05;4.35;;;;;;;7.08;65.97;97604.03;1494216;94;26708;-73
2023/01/06 11:09:43;;;;;;;9.23;5.75;;;;;;;7.19;66.28;97607.60;1535677;93;25625;-73
2023/01/06 11:12:21;;;;;;;7.80;5.37;;;;;;;7.32;65.60;97610.47;1522371;94;28313;-73
2023/01/06 11:15:02;;;;;;;6.90;4.50;;;;;;;7.52;65.71;97605.35;1522408;94;25777;-72
2023/01/06 11:17:30;;;;;;;8.20;4.87;;;;;;;7.62;64.73;97608.57;1513540;94;25900;-73
2023/01/06 11:20:20;;;;;;;10.00;5.42;;;;;;;7.72;64.49;97597.55;1474892;97;25753;-75
2023/01/06 11:22:47;;;;;;;20.97;10.55;;;;;;;7.83;64.59;97599.75;1537826;93;25998;-74
2023/01/06 11:25:29;;;;;;;6.72;4.30;;;;;;;8.01;64.33;97596.11;1534918;93;27429;-73
2023/01/06 11:28:20;;;;;;;6.50;3.92;;;;;;;8.09;63.90;97593.30;1512374;93;25787;-73
2023/01/06 11:30:51;;;;;;;7.85;3.90;;;;;;;8.03;63.03;97584.66;1598658;88;25429;-75
2023/01/06 11:33:24;;;;;;;8.75;4.10;;;;;;;8.07;63.22;97586.47;1617300;88;25807;-73
2023/01/06 11:35:51;;;;;;;6.78;3.55;;;;;;;8.15;63.41;97580.45;1613970;88;25847;-73
2023/01/06 11:38:20;;;;;;;4.28;3.25;;;;;;;8.27;62.88;97588.83;1613833;87;28323;-74
2023/01/06 11:40:52;;;;;;;6.53;3.58;;;;;;;8.30;62.99;97578.53;1613894;87;25832;-73
2023/01/06 11:43:26;;;;;;;6.35;4.22;;;;;;;8.39;62.72;97581.11;1613882;88;25807;-73
2023/01/06 11:46:03;;;;;;;6.60;3.55;;;;;;;8.46;62.46;97572.57;1614084;88;25824;-74
2023/01/06 11:48:38;;;;;;;7.80;4.90;;;;;;;8.48;61.85;97577.25;1586344;90;25493;-73
2023/01/06 11:51:07;;;;;;;8.08;4.35;;;;;;;8.40;62.28;97570.67;1550504;92;27599;-74
2023/01/06 11:53:37;;;;;;;5.20;3.37;;;;;;;8.52;62.05;97567.78;1534528;92;25537;-73
2023/01/06 11:56:19;;;;;;;8.05;4.10;;;;;;;8.61;61.92;97566.59;1535792;93;25805;-74
2023/01/06 11:59:08;;;;;;;7.90;4.58;;;;;;;8.74;62.08;97562.67;1539422;92;25767;-74
2023/01/06 12:01:49;;;;;;;8.83;4.62;;;;;;;8.83;61.58;97562.83;1640848;86;25850;-74
2023/01/06 12:04:41;;;;;;;8.10;5.60;;;;;;;8.95;61.65;97568.50;1634158;86;28105;-75
2023/01/06 12:07:23;;;;;;;10.15;5.50;;;;;;;9.09;61.64;97573.45;1633170;86;25802;-75